Nave Celeste — VRZH4 — position and weather

sailwx.info

Track history (hours):
 
Tides and Currents Weather Stations Pressure Air Temp Water Temp Dewpoint Dewpoint Depression Visibility Wind Speed Wind Dir Waves Ship Positions

Nave Celeste

Last reported at 2014-Aug-05 17:33 UTC. Time now 2014-Aug-30 16:33 UTC.
Position N 01°11' E 103°48'.
Warning: this ship's position is 24 days out of date.

Length 333 m; draft 11.1 m.

Type: Tanker. MMSI: 477974000.

Date/timePositionNaut miles runAvg speedWind from/ knotsBaromVisibWave heightAir tempDewpointWater temp
2014-Aug-05 17:33N 01°11' E 103°48'7 7.1
2014-Aug-05 16:33N 01°14' E 103°54'2 1.7
2014-Aug-05 15:32N 01°16' E 103°55'0 0.0
2014-Aug-05 14:32N 01°16' E 103°55'0 0.0
2014-Aug-05 13:29N 01°16' E 103°55'0 0.0
2014-Aug-05 12:32N 01°16' E 103°55'0 0.0
2014-Aug-05 11:32N 01°16' E 103°55'0 0.1
2014-Aug-05 10:32N 01°16' E 103°55'0 0.0
2014-Aug-05 09:32N 01°16' E 103°55'0 0.1
2014-Aug-05 08:32N 01°16' E 103°55'0 0.1
2014-Aug-05 07:32N 01°16' E 103°55'0 0.1
2014-Aug-05 06:32N 01°16' E 103°55'0 0.0
2014-Aug-05 05:29N 01°16' E 103°55'0 0.2
2014-Aug-05 04:29N 01°16' E 103°55'0 0.0
2014-Aug-05 03:32N 01°16' E 103°55'0 0.0
2014-Aug-05 02:32N 01°16' E 103°55'0 0.1
2014-Aug-05 01:32N 01°16' E 103°55'0 0.0
2014-Aug-05 00:32N 01°16' E 103°55'0 0.1
2014-Aug-04 23:32N 01°16' E 103°55'0 0.1
2014-Aug-04 22:32N 01°16' E 103°55'0 0.3
2014-Aug-04 21:32N 01°16' E 103°55'0 0.0
2014-Aug-04 20:32N 01°16' E 103°55'1 0.9
2014-Aug-04 19:33N 01°16' E 103°56'4 4.4
2014-Aug-04 18:33N 01°16' E 104°00'7 6.6
2014-Aug-04 17:33N 01°17' E 104°07'  
2014-Jul-27 04:33N 01°14' E 103°59'8 8.0
2014-Jul-27 03:31N 01°11' E 103°51'  
Track history (hours):
 
Tides and Currents Weather Stations Pressure Air Temp Water Temp Dewpoint Dewpoint Depression Visibility Wind Speed Wind Dir Waves Ship Positions

Nave Celeste

Last reported at 2014-Aug-05 17:33 UTC. Time now 2014-Aug-30 16:33 UTC.
Position N 01°11' E 103°48'.
Warning: this ship's position is 24 days out of date.

Length 333 m; draft 11.1 m.

Type: Tanker. MMSI: 477974000.

Date/timePositionNaut miles runAvg speedWind from/ knotsBaromVisibWave heightAir tempDewpointWater temp
2014-Aug-05 17:33N 01°11' E 103°48'7 7.1
2014-Aug-05 16:33N 01°14' E 103°54'2 1.7
2014-Aug-05 15:32N 01°16' E 103°55'0 0.0
2014-Aug-05 14:32N 01°16' E 103°55'0 0.0
2014-Aug-05 13:29N 01°16' E 103°55'0 0.0
2014-Aug-05 12:32N 01°16' E 103°55'0 0.0
2014-Aug-05 11:32N 01°16' E 103°55'0 0.1
2014-Aug-05 10:32N 01°16' E 103°55'0 0.0
2014-Aug-05 09:32N 01°16' E 103°55'0 0.1
2014-Aug-05 08:32N 01°16' E 103°55'0 0.1
2014-Aug-05 07:32N 01°16' E 103°55'0 0.1
2014-Aug-05 06:32N 01°16' E 103°55'0 0.0
2014-Aug-05 05:29N 01°16' E 103°55'0 0.2
2014-Aug-05 04:29N 01°16' E 103°55'0 0.0
2014-Aug-05 03:32N 01°16' E 103°55'0 0.0
2014-Aug-05 02:32N 01°16' E 103°55'0 0.1
2014-Aug-05 01:32N 01°16' E 103°55'0 0.0
2014-Aug-05 00:32N 01°16' E 103°55'0 0.1
2014-Aug-04 23:32N 01°16' E 103°55'0 0.1
2014-Aug-04 22:32N 01°16' E 103°55'0 0.3
2014-Aug-04 21:32N 01°16' E 103°55'0 0.0
2014-Aug-04 20:32N 01°16' E 103°55'1 0.9
2014-Aug-04 19:33N 01°16' E 103°56'4 4.4
2014-Aug-04 18:33N 01°16' E 104°00'7 6.6
2014-Aug-04 17:33N 01°17' E 104°07'  
2014-Jul-27 04:33N 01°14' E 103°59'8 8.0
2014-Jul-27 03:31N 01°11' E 103°51'  

Dump ship's entire track history